Time;durP1;ratioP1;P1;durP2;ratioP2;P2;SDS_P1;SDS_P2;PMS_P1;PMS_P2;Temp;Humidity;BMP_temperature;BMP_pressure;BME280_temperature;BME280_humidity;BME280_pressure;Samples;Min_cycle;Max_cycle;Signal;HPM_P1;HPM_P2
2021/07/20 00:02:10;;;;;;;15.27;11.02;;;20.80;96.40;;;;;;4974217;28;20134;-79
2021/07/20 00:04:37;;;;;;;17.17;10.68;;;20.80;96.70;;;;;;4974535;28;20141;-79
2021/07/20 00:07:05;;;;;;;14.95;10.90;;;20.80;97.00;;;;;;4974296;28;20137;-80
2021/07/20 00:09:32;;;;;;;16.55;10.77;;;20.70;97.20;;;;;;4975075;28;20082;-79
2021/07/20 00:11:59;;;;;;;15.77;11.30;;;20.70;97.30;;;;;;4974691;28;20134;-78
2021/07/20 00:14:26;;;;;;;16.23;11.15;;;20.70;97.30;;;;;;4974540;28;20133;-79
2021/07/20 00:16:54;;;;;;;14.95;10.88;;;20.70;97.40;;;;;;4974594;28;20093;-79
2021/07/20 00:19:21;;;;;;;16.75;11.60;;;20.70;97.50;;;;;;4974717;28;20154;-80
2021/07/20 00:21:51;;;;;;;16.83;11.52;;;20.60;97.50;;;;;;4966772;28;20075;-81
2021/07/20 00:24:18;;;;;;;18.10;11.73;;;20.60;97.50;;;;;;4968798;28;20512;-80
2021/07/20 00:26:46;;;;;;;16.08;10.88;;;20.60;97.60;;;;;;4974784;28;20146;-80
2021/07/20 00:29:14;;;;;;;16.02;11.45;;;20.50;97.70;;;;;;4978418;28;20077;-81
2021/07/20 00:31:41;;;;;;;17.42;11.57;;;20.50;97.80;;;;;;4982201;28;20082;-80
2021/07/20 00:34:09;;;;;;;15.73;11.18;;;20.50;97.80;;;;;;4974284;28;20130;-81
2021/07/20 00:36:36;;;;;;;15.98;11.07;;;20.40;97.90;;;;;;4974359;28;20053;-81
2021/07/20 00:39:05;;;;;;;17.05;11.90;;;20.30;98.10;;;;;;4975040;28;20086;-80
2021/07/20 00:41:32;;;;;;;15.70;10.88;;;20.30;98.10;;;;;;4974512;28;20089;-81
2021/07/20 00:43:59;;;;;;;16.42;11.10;;;20.30;98.30;;;;;;4973918;28;20065;-80
2021/07/20 00:46:26;;;;;;;15.90;10.70;;;20.20;98.40;;;;;;4974439;28;20130;-80
2021/07/20 00:48:53;;;;;;;16.30;11.23;;;20.20;98.40;;;;;;4974774;28;20416;-80
2021/07/20 00:51:23;;;;;;;16.10;11.18;;;20.20;98.50;;;;;;4966520;28;20043;-81
2021/07/20 00:53:50;;;;;;;17.80;12.27;;;20.10;98.50;;;;;;4959780;29;20086;-81
2021/07/20 00:56:18;;;;;;;15.48;11.18;;;20.10;98.40;;;;;;4973038;28;20054;-81
2021/07/20 00:58:46;;;;;;;18.25;11.75;;;20.10;98.60;;;;;;4978010;28;20148;-80
2021/07/20 01:01:13;;;;;;;18.42;11.77;;;20.00;98.70;;;;;;4978573;28;20134;-81
2021/07/20 01:03:40;;;;;;;16.13;11.38;;;19.90;98.80;;;;;;4978811;28;20061;-81
2021/07/20 01:06:09;;;;;;;15.77;10.95;;;19.90;98.90;;;;;;4977840;28;20461;-81
2021/07/20 01:08:40;;;;;;;17.55;11.80;;;19.90;99.00;;;;;;4978150;28;20046;-80
2021/07/20 01:11:08;;;;;;;17.83;11.73;;;19.80;99.00;;;;;;4988906;28;20089;-81
2021/07/20 01:13:36;;;;;;;15.82;11.23;;;19.80;99.10;;;;;;4988650;28;20066;-81
2021/07/20 01:16:04;;;;;;;15.80;11.63;;;19.80;99.20;;;;;;4988449;28;20070;-82
2021/07/20 01:18:32;;;;;;;17.23;11.57;;;19.80;99.10;;;;;;4990439;28;20553;-79
2021/07/20 01:20:59;;;;;;;15.23;11.00;;;19.80;99.20;;;;;;4981576;28;20389;-80
2021/07/20 01:23:37;;;;;;;18.02;12.35;;;19.70;99.10;;;;;;4962577;28;20082;-81
2021/07/20 01:26:04;;;;;;;16.02;11.45;;;19.70;99.10;;;;;;4962709;29;20078;-80
2021/07/20 01:28:33;;;;;;;16.13;11.32;;;19.70;99.10;;;;;;4958510;29;20087;-80
2021/07/20 01:31:08;;;;;;;16.52;11.30;;;19.60;99.20;;;;;;4969139;28;20094;-80
2021/07/20 01:33:37;;;;;;;17.63;11.48;;;19.60;99.20;;;;;;4978252;28;20046;-80
2021/07/20 01:36:07;;;;;;;16.23;10.77;;;19.50;99.20;;;;;;4977405;28;20466;-81
2021/07/20 01:38:36;;;;;;;16.00;11.10;;;19.50;99.20;;;;;;4977119;28;20057;-80
2021/07/20 01:41:08;;;;;;;16.35;11.13;;;19.40;99.30;;;;;;4977207;28;20126;-81
2021/07/20 01:43:37;;;;;;;17.45;11.43;;;19.30;99.40;;;;;;4968929;28;20138;-80
2021/07/20 01:46:06;;;;;;;15.85;11.25;;;19.30;99.50;;;;;;4957967;29;20057;-80
2021/07/20 01:48:37;;;;;;;17.30;11.23;;;19.30;99.50;;;;;;4960153;28;20054;-80
2021/07/20 01:51:06;;;;;;;18.10;11.40;;;19.30;99.40;;;;;;4975610;28;20133;-80
2021/07/20 01:53:35;;;;;;;17.75;11.75;;;19.30;99.40;;;;;;4970329;28;20170;-80
2021/07/20 01:56:04;;;;;;;16.88;11.25;;;19.20;99.40;;;;;;4977542;28;20137;-81
2021/07/20 01:58:32;;;;;;;16.73;11.32;;;19.20;99.60;;;;;;4976816;28;20576;-80
2021/07/20 02:01:01;;;;;;;17.88;11.68;;;19.10;99.70;;;;;;4977495;28;20141;-79
2021/07/20 02:03:55;;;;;;;17.90;11.60;;;19.10;99.80;;;;;;4977165;28;20090;-80
2021/07/20 02:09:16;;;;;;;16.63;11.45;;;19.00;99.70;;;;;;4941447;28;20489;-78
2021/07/20 02:11:45;;;;;;;17.25;11.07;;;19.00;99.70;;;;;;4957893;29;20130;-79
2021/07/20 02:14:14;;;;;;;15.85;10.90;;;19.00;99.80;;;;;;4959235;28;20055;-78
2021/07/20 02:16:46;;;;;;;17.33;11.80;;;19.00;99.90;;;;;;4977494;28;20049;-78
2021/07/20 02:19:24;;;;;;;18.80;12.13;;;18.90;99.80;;;;;;4976758;28;20070;-80
2021/07/20 02:21:57;;;;;;;17.88;11.57;;;18.90;99.70;;;;;;4975782;28;20505;-80
2021/07/20 02:24:31;;;;;;;17.05;11.48;;;18.80;99.60;;;;;;4976654;28;20143;-80
2021/07/20 02:27:01;;;;;;;17.15;11.55;;;18.80;99.80;;;;;;4979388;28;20121;-80
2021/07/20 02:29:30;;;;;;;17.48;11.20;;;18.70;99.80;;;;;;4984516;28;20134;-78
2021/07/20 02:32:00;;;;;;;16.33;11.52;;;18.70;99.90;;;;;;4976375;28;20054;-78
2021/07/20 02:34:29;;;;;;;17.50;11.55;;;18.70;99.90;;;;;;4977061;28;20129;-79
2021/07/20 02:36:58;;;;;;;16.63;10.82;;;18.70;99.90;;;;;;4976318;28;20129;-79
2021/07/20 02:39:27;;;;;;;16.50;11.00;;;18.70;99.90;;;;;;4976504;28;20054;-81
2021/07/20 02:41:56;;;;;;;16.77;11.75;;;18.60;99.90;;;;;;4974152;28;20146;-79
2021/07/20 02:44:25;;;;;;;20.08;12.05;;;18.70;99.90;;;;;;4957630;29;20138;-82
2021/07/20 02:46:53;;;;;;;17.33;11.73;;;18.60;99.90;;;;;;4957911;29;20129;-80
2021/07/20 02:49:21;;;;;;;17.75;11.82;;;18.60;99.80;;;;;;4967276;28;20118;-80
2021/07/20 02:51:52;;;;;;;18.13;11.30;;;18.50;99.90;;;;;;4976188;28;20150;-79
2021/07/20 02:54:24;;;;;;;16.95;11.93;;;18.60;99.90;;;;;;4976136;28;20047;-81
2021/07/20 02:56:53;;;;;;;17.80;11.63;;;18.50;99.80;;;;;;4972080;28;20043;-79
2021/07/20 02:59:26;;;;;;;17.50;11.02;;;18.40;99.90;;;;;;4956578;29;20051;-79
2021/07/20 03:01:56;;;;;;;16.30;11.88;;;18.30;99.90;;;;;;4969109;28;20133;-78
2021/07/20 03:04:24;;;;;;;16.77;11.30;;;18.20;99.90;;;;;;4973920;28;20138;-79
2021/07/20 03:06:56;;;;;;;15.52;10.65;;;18.20;99.90;;;;;;4973835;28;20595;-79
2021/07/20 03:09:25;;;;;;;15.95;10.65;;;18.20;99.90;;;;;;4973067;28;20049;-78
2021/07/20 03:12:00;;;;;;;15.07;10.50;;;18.20;99.90;;;;;;4972875;28;20047;-80
2021/07/20 03:14:28;;;;;;;;;;;18.20;99.90;;;;;;4973079;28;20051;-80
2021/07/20 03:16:56;;;;;;;18.95;12.10;;;18.20;99.90;;;;;;4973318;28;19928;-78
2021/07/20 03:19:27;;;;;;;17.40;11.23;;;18.20;99.90;;;;;;4973212;28;20114;-81
2021/07/20 03:21:57;;;;;;;16.92;11.18;;;18.20;99.90;;;;;;4973177;28;20086;-80
2021/07/20 03:24:25;;;;;;;18.10;11.73;;;18.10;99.90;;;;;;4973077;28;22465;-80
2021/07/20 03:26:56;;;;;;;17.50;11.80;;;18.10;99.90;;;;;;4972310;28;20125;-80
2021/07/20 03:29:25;;;;;;;16.50;11.48;;;18.10;99.90;;;;;;4973056;28;20055;-81
2021/07/20 03:31:54;;;;;;;16.40;11.55;;;18.10;99.90;;;;;;4974030;28;20039;-83
2021/07/20 03:34:22;;;;;;;16.38;11.27;;;18.00;99.90;;;;;;4972026;28;20039;-83
2021/07/20 03:36:50;;;;;;;15.63;11.02;;;17.90;99.90;;;;;;4982001;28;20138;-83
2021/07/20 03:39:19;;;;;;;17.67;10.68;;;17.90;99.90;;;;;;4983531;28;20070;-80
2021/07/20 03:41:47;;;;;;;16.88;11.73;;;17.90;99.90;;;;;;4972945;28;20137;-81
2021/07/20 03:44:16;;;;;;;18.67;11.57;;;17.90;99.90;;;;;;4980507;28;20066;-82
2021/07/20 03:46:44;;;;;;;19.13;11.57;;;17.90;99.90;;;;;;4979781;28;20138;-83
2021/07/20 03:49:13;;;;;;;15.38;11.25;;;17.90;99.90;;;;;;4972745;28;20161;-83
2021/07/20 03:51:42;;;;;;;16.38;11.50;;;17.90;99.90;;;;;;4972957;28;20513;-86
2021/07/20 03:54:10;;;;;;;17.75;11.80;;;17.90;99.90;;;;;;4968254;28;20130;-84
2021/07/20 03:56:40;;;;;;;17.85;11.77;;;17.90;99.90;;;;;;4962054;28;20086;-84
2021/07/20 03:59:09;;;;;;;16.73;11.88;;;17.90;99.90;;;;;;4972898;28;20055;-84
2021/07/20 04:01:40;;;;;;;16.75;11.48;;;17.90;99.90;;;;;;4973273;28;20050;-84
2021/07/20 04:04:12;;;;;;;15.80;10.80;;;17.80;99.90;;;;;;4974399;28;20524;-84
2021/07/20 04:06:41;;;;;;;16.05;10.88;;;17.80;99.90;;;;;;4974386;28;20105;-83
2021/07/20 04:09:11;;;;;;;15.02;10.13;;;17.70;99.90;;;;;;4974128;28;20390;-80
2021/07/20 04:11:41;;;;;;;17.70;10.88;;;17.70;99.90;;;;;;4974552;28;20058;-81
2021/07/20 04:14:13;;;;;;;17.23;11.52;;;17.80;99.90;;;;;;4963317;28;20138;-80
2021/07/20 04:16:43;;;;;;;19.38;11.50;;;17.80;99.90;;;;;;4955915;29;20593;-77
2021/07/20 04:19:14;;;;;;;16.90;11.70;;;17.80;99.90;;;;;;4966819;28;20137;-77
2021/07/20 04:21:42;;;;;;;19.38;12.00;;;17.70;99.90;;;;;;4974979;28;20050;-77
2021/07/20 04:24:10;;;;;;;17.25;11.65;;;17.70;99.90;;;;;;4973519;28;20129;-78
2021/07/20 04:26:41;;;;;;;18.10;11.35;;;17.60;99.90;;;;;;4978358;28;20042;-78
2021/07/20 04:29:08;;;;;;;17.02;11.63;;;17.60;99.90;;;;;;4981472;28;20144;-77
2021/07/20 04:31:41;;;;;;;16.70;11.18;;;17.60;99.90;;;;;;4982339;28;20077;-78
2021/07/20 04:34:10;;;;;;;17.20;11.05;;;17.60;99.90;;;;;;4975196;28;20046;-77
2021/07/20 04:36:39;;;;;;;16.58;11.02;;;17.60;99.90;;;;;;4980576;28;20568;-78
2021/07/20 04:39:06;;;;;;;18.92;12.07;;;17.60;99.90;;;;;;4982543;28;20129;-79
2021/07/20 04:41:34;;;;;;;16.88;11.57;;;17.60;99.90;;;;;;4984495;28;20074;-76
2021/07/20 04:44:01;;;;;;;16.80;11.93;;;17.60;99.90;;;;;;4984374;28;20137;-77
2021/07/20 04:46:28;;;;;;;17.08;11.57;;;17.60;99.90;;;;;;4975729;28;20478;-78
2021/07/20 04:48:57;;;;;;;16.75;11.15;;;17.60;99.90;;;;;;4974701;28;20050;-77
2021/07/20 04:51:25;;;;;;;18.40;11.88;;;17.60;99.90;;;;;;4974284;28;20130;-77
2021/07/20 04:53:52;;;;;;;19.25;11.45;;;17.60;99.90;;;;;;4964022;28;20047;-77
2021/07/20 04:56:22;;;;;;;17.17;11.23;;;17.60;99.90;;;;;;4955100;29;20138;-78
2021/07/20 04:58:49;;;;;;;18.48;12.20;;;17.60;99.90;;;;;;4955072;29;20047;-78
2021/07/20 05:01:16;;;;;;;17.23;11.48;;;17.70;99.90;;;;;;4955166;29;20556;-78
2021/07/20 05:03:45;;;;;;;17.38;11.40;;;17.70;99.90;;;;;;4955120;28;20142;-77
2021/07/20 05:06:14;;;;;;;16.95;12.40;;;17.70;99.90;;;;;;4969323;28;20050;-78
2021/07/20 05:08:42;;;;;;;17.50;11.73;;;17.70;99.90;;;;;;4974150;28;20090;-78
2021/07/20 05:11:09;;;;;;;19.10;11.98;;;17.70;99.90;;;;;;4973950;28;20057;-79
2021/07/20 05:13:36;;;;;;;17.55;12.27;;;17.70;99.90;;;;;;4974001;28;20556;-77
2021/07/20 05:16:06;;;;;;;18.83;12.05;;;17.70;99.90;;;;;;4974232;28;20106;-77
2021/07/20 05:18:35;;;;;;;17.90;12.27;;;17.60;99.90;;;;;;4972726;28;20093;-77
2021/07/20 05:21:03;;;;;;;18.60;11.80;;;17.60;99.90;;;;;;4973996;28;20134;-77
2021/07/20 05:23:34;;;;;;;19.85;12.50;;;17.60;99.90;;;;;;4974150;28;20133;-79
2021/07/20 05:26:01;;;;;;;19.85;13.02;;;17.60;99.90;;;;;;4974042;28;20250;-76
2021/07/20 05:28:31;;;;;;;20.50;12.77;;;17.60;99.90;;;;;;4974247;28;20085;-78
2021/07/20 05:31:01;;;;;;;19.77;13.48;;;17.60;99.90;;;;;;4974236;28;20050;-78
2021/07/20 05:33:29;;;;;;;18.15;12.07;;;17.60;99.90;;;;;;4962428;28;20138;-76
2021/07/20 05:35:58;;;;;;;18.70;12.15;;;17.60;99.90;;;;;;4954473;29;20398;-77
2021/07/20 05:38:27;;;;;;;19.95;12.50;;;17.60;99.90;;;;;;4956273;28;20079;-78
2021/07/20 05:40:58;;;;;;;19.13;12.98;;;17.60;99.90;;;;;;4958425;29;20528;-78
2021/07/20 05:43:28;;;;;;;19.15;12.70;;;17.60;99.90;;;;;;4958546;29;20061;-77
2021/07/20 05:45:59;;;;;;;19.67;12.20;;;17.60;99.90;;;;;;4966431;28;20139;-78
2021/07/20 05:48:28;;;;;;;20.20;13.05;;;17.70;99.90;;;;;;4977539;28;20133;-78
2021/07/20 05:51:00;;;;;;;18.38;13.05;;;17.70;99.90;;;;;;4976932;28;20386;-77
2021/07/20 05:53:29;;;;;;;20.23;13.25;;;17.70;99.90;;;;;;4977614;28;20121;-77
2021/07/20 05:56:01;;;;;;;18.40;12.23;;;17.70;99.90;;;;;;4960538;28;20050;-77
2021/07/20 05:58:29;;;;;;;19.10;11.77;;;17.70;99.90;;;;;;4958084;29;20043;-78
2021/07/20 06:01:01;;;;;;;18.80;11.52;;;17.70;99.90;;;;;;4957886;29;20082;-77
2021/07/20 06:03:29;;;;;;;17.60;11.93;;;17.70;99.90;;;;;;4957703;29;20054;-77
2021/07/20 06:05:57;;;;;;;19.88;11.60;;;17.70;99.90;;;;;;4957695;29;20043;-77
2021/07/20 06:08:27;;;;;;;18.10;11.10;;;17.80;99.90;;;;;;4957933;29;20114;-78
2021/07/20 06:10:58;;;;;;;17.05;11.27;;;17.80;99.90;;;;;;4957978;28;20138;-78
2021/07/20 06:13:28;;;;;;;18.52;11.82;;;17.90;99.90;;;;;;4957780;29;20130;-77
2021/07/20 06:15:56;;;;;;;17.27;11.38;;;17.90;99.90;;;;;;4957482;29;20139;-78
2021/07/20 06:18:23;;;;;;;19.58;11.25;;;17.90;99.90;;;;;;4957878;28;20082;-78
2021/07/20 06:20:54;;;;;;;18.15;11.48;;;18.00;99.90;;;;;;4957527;29;20138;-77
2021/07/20 06:23:23;;;;;;;18.45;11.65;;;18.00;99.90;;;;;;4957181;28;20138;-78
2021/07/20 06:25:52;;;;;;;18.45;11.48;;;18.00;99.90;;;;;;4957488;28;20055;-78
2021/07/20 06:28:22;;;;;;;17.38;10.85;;;18.10;99.90;;;;;;4957350;28;20138;-78
2021/07/20 06:30:50;;;;;;;17.33;10.93;;;18.10;99.90;;;;;;4957482;28;20059;-76
2021/07/20 06:33:19;;;;;;;16.67;10.55;;;18.10;99.90;;;;;;4957386;28;20465;-77
2021/07/20 06:35:47;;;;;;;14.43;9.98;;;18.20;99.90;;;;;;4972122;28;20070;-78
2021/07/20 06:38:17;;;;;;;16.15;10.13;;;18.20;99.90;;;;;;4976341;28;20150;-78
2021/07/20 06:40:49;;;;;;;16.88;10.70;;;18.20;99.90;;;;;;4976258;28;20133;-78
2021/07/20 06:43:16;;;;;;;14.05;9.55;;;18.30;99.90;;;;;;4976121;28;20500;-76
2021/07/20 06:45:48;;;;;;;14.85;10.30;;;18.40;99.80;;;;;;4976503;28;20404;-77
2021/07/20 06:48:17;;;;;;;14.90;10.25;;;18.50;99.70;;;;;;4968347;28;20421;-76
2021/07/20 06:50:46;;;;;;;16.67;10.70;;;18.50;99.50;;;;;;4956237;28;20049;-78
2021/07/20 06:53:14;;;;;;;17.55;10.73;;;18.50;99.40;;;;;;4956582;29;20476;-78
2021/07/20 06:55:47;;;;;;;16.65;10.77;;;18.60;99.30;;;;;;4957350;29;20102;-76
2021/07/20 06:58:15;;;;;;;17.60;10.98;;;18.60;99.30;;;;;;4957255;29;20134;-77
2021/07/20 07:00:48;;;;;;;14.88;10.00;;;18.60;99.30;;;;;;4972665;28;20061;-78
2021/07/20 07:03:17;;;;;;;17.50;10.27;;;18.60;99.20;;;;;;4976059;28;20054;-78
2021/07/20 07:05:45;;;;;;;16.45;10.35;;;18.60;99.20;;;;;;4975879;28;20138;-77
2021/07/20 07:08:13;;;;;;;14.93;10.05;;;18.60;99.20;;;;;;4975446;28;20467;-79
2021/07/20 07:10:40;;;;;;;15.00;9.77;;;18.70;99.20;;;;;;4976025;28;20551;-78
2021/07/20 07:13:09;;;;;;;16.08;11.05;;;18.70;99.10;;;;;;4975999;28;20133;-76
2021/07/20 07:15:38;;;;;;;16.52;10.93;;;18.70;98.60;;;;;;4958174;28;20102;-78
2021/07/20 07:18:08;;;;;;;15.68;10.38;;;18.70;98.40;;;;;;4956912;29;20134;-77
2021/07/20 07:20:36;;;;;;;14.73;9.82;;;18.70;98.40;;;;;;4964281;29;20142;-78
2021/07/20 07:23:04;;;;;;;17.15;9.82;;;18.70;98.50;;;;;;4969875;28;20067;-77
2021/07/20 07:25:32;;;;;;;16.08;10.75;;;18.70;98.40;;;;;;4959095;29;20089;-77
2021/07/20 07:28:00;;;;;;;15.05;9.98;;;18.70;98.40;;;;;;4956242;28;20417;-77
2021/07/20 07:30:28;;;;;;;14.15;9.90;;;18.70;98.40;;;;;;4959633;28;20070;-77
2021/07/20 07:32:58;;;;;;;19.58;11.05;;;18.80;98.30;;;;;;4975530;28;20050;-76
2021/07/20 07:35:29;;;;;;;15.32;9.52;;;18.80;97.90;;;;;;4974074;28;20584;-77
2021/07/20 07:38:00;;;;;;;15.15;9.20;;;18.80;98.10;;;;;;4955942;29;20058;-77
2021/07/20 07:40:29;;;;;;;12.23;8.05;;;18.90;98.00;;;;;;4956190;28;20047;-78
2021/07/20 07:42:59;;;;;;;15.90;10.18;;;19.00;98.40;;;;;;4955948;28;20047;-77
2021/07/20 07:45:27;;;;;;;17.10;10.32;;;19.10;98.10;;;;;;4956066;28;20130;-78
2021/07/20 07:47:55;;;;;;;14.95;10.00;;;19.20;97.70;;;;;;4964611;28;20074;-78
2021/07/20 07:50:23;;;;;;;15.50;9.50;;;19.20;97.70;;;;;;4958807;28;20130;-78
2021/07/20 07:52:53;;;;;;;13.43;8.50;;;19.20;98.00;;;;;;4955669;29;20484;-77
2021/07/20 07:55:21;;;;;;;15.68;8.52;;;19.30;98.00;;;;;;4955726;29;20051;-77
2021/07/20 07:57:50;;;;;;;13.30;8.35;;;19.40;98.00;;;;;;4955690;29;20048;-77
2021/07/20 08:00:18;;;;;;;12.32;7.78;;;19.50;97.70;;;;;;4955588;28;20134;-77
2021/07/20 08:02:51;;;;;;;16.30;10.23;;;19.60;97.70;;;;;;4955988;29;20122;-78
2021/07/20 08:05:18;;;;;;;16.02;9.20;;;19.70;97.40;;;;;;4972993;28;20053;-77
2021/07/20 08:07:45;;;;;;;14.55;9.05;;;19.70;97.30;;;;;;4974495;28;20129;-78
2021/07/20 08:10:15;;;;;;;12.57;8.27;;;19.80;97.20;;;;;;4974801;28;20137;-77
2021/07/20 08:12:45;;;;;;;12.18;8.45;;;19.90;97.30;;;;;;4974816;28;20074;-77
2021/07/20 08:15:15;;;;;;;11.57;7.47;;;20.00;97.30;;;;;;4974741;28;20492;-78
2021/07/20 08:17:44;;;;;;;15.93;10.15;;;20.00;97.20;;;;;;4955767;28;20449;-77
2021/07/20 08:20:14;;;;;;;14.25;9.18;;;20.10;96.80;;;;;;4954048;28;20139;-77
2021/07/20 08:22:41;;;;;;;15.55;10.32;;;20.20;96.80;;;;;;4968954;28;20129;-78
2021/07/20 08:25:14;;;;;;;15.38;9.63;;;20.20;96.70;;;;;;4953420;28;20054;-78
2021/07/20 08:27:46;;;;;;;13.70;9.40;;;20.20;96.60;;;;;;4952635;29;20082;-77
2021/07/20 08:30:16;;;;;;;15.65;9.02;;;20.20;96.70;;;;;;4953520;28;20055;-78
2021/07/20 08:32:51;;;;;;;13.35;8.25;;;20.30;96.80;;;;;;4952487;28;20090;-80
2021/07/20 08:35:25;;;;;;;13.52;8.38;;;20.30;96.70;;;;;;4952271;29;20478;-78
2021/07/20 08:37:55;;;;;;;12.50;8.38;;;20.40;96.50;;;;;;4952868;29;20051;-79
2021/07/20 08:40:51;;;;;;;15.15;8.75;;;20.40;96.40;;;;;;4953425;28;20089;-77
2021/07/20 08:43:32;;;;;;;12.90;8.13;;;20.50;96.00;;;;;;4971460;28;20058;-78
2021/07/20 08:46:22;;;;;;;13.20;9.10;;;20.60;95.90;;;;;;4971466;28;20043;-79
2021/07/20 08:48:59;;;;;;;13.57;8.98;;;20.60;95.90;;;;;;4972035;28;20055;-79
2021/07/20 08:51:34;;;;;;;13.85;7.80;;;20.60;95.70;;;;;;4958724;28;20511;-78
2021/07/20 08:54:08;;;;;;;13.98;8.68;;;20.70;95.60;;;;;;4965209;28;20047;-79
2021/07/20 08:56:42;;;;;;;11.48;7.45;;;20.80;95.30;;;;;;4972008;28;20047;-76
2021/07/20 08:59:12;;;;;;;;;;;20.90;95.50;;;;;;4972158;28;20142;-77
2021/07/20 09:01:49;;;;;;;10.80;7.43;;;21.00;95.50;;;;;;4971523;28;19928;-77
2021/07/20 09:04:21;;;;;;;11.27;7.10;;;21.10;95.30;;;;;;4971305;28;20047;-78
2021/07/20 09:06:52;;;;;;;9.98;6.63;;;21.10;94.20;;;;;;4954119;28;20051;-83
2021/07/20 09:09:24;;;;;;;9.02;5.90;;;21.20;93.90;;;;;;4952589;29;20054;-78
2021/07/20 09:11:58;;;;;;;10.73;6.50;;;21.20;94.00;;;;;;4952502;28;20051;-78
2021/07/20 09:14:32;;;;;;;13.50;7.25;;;21.30;93.90;;;;;;4960906;28;20049;-81
2021/07/20 09:17:09;;;;;;;11.88;6.75;;;21.40;93.20;;;;;;4975496;28;20061;-77
2021/07/20 09:19:44;;;;;;;9.07;6.40;;;21.50;93.10;;;;;;4955602;28;20047;-78
2021/07/20 09:22:15;;;;;;;11.38;7.05;;;21.50;92.80;;;;;;4955515;29;20143;-75
2021/07/20 09:24:54;;;;;;;9.50;6.38;;;21.60;92.50;;;;;;4955913;29;20047;-78
2021/07/20 09:27:31;;;;;;;11.73;7.15;;;21.70;92.50;;;;;;4956194;29;20048;-79
2021/07/20 09:30:02;;;;;;;13.75;8.00;;;21.80;92.10;;;;;;4955801;29;20090;-79
2021/07/20 09:32:47;;;;;;;11.57;7.03;;;21.80;91.50;;;;;;4956327;28;20417;-78
2021/07/20 09:35:25;;;;;;;12.93;7.65;;;21.80;91.60;;;;;;4955892;29;20086;-79
2021/07/20 09:38:04;;;;;;;11.60;7.50;;;21.90;91.60;;;;;;4955764;28;20506;-76
2021/07/20 09:40:45;;;;;;;10.63;7.20;;;21.90;91.70;;;;;;4955401;29;20047;-77
2021/07/20 09:43:36;;;;;;;10.80;6.47;;;22.00;91.60;;;;;;4960991;29;20055;-77
2021/07/20 09:46:07;;;;;;;12.38;7.63;;;22.10;91.50;;;;;;4965088;29;20079;-78
2021/07/20 09:48:48;;;;;;;12.40;7.80;;;22.10;91.00;;;;;;4972421;28;20127;-77
2021/07/20 09:51:31;;;;;;;12.73;8.05;;;22.20;90.70;;;;;;4984039;28;20046;-77
2021/07/20 09:54:15;;;;;;;13.77;8.07;;;22.20;90.70;;;;;;4977997;28;20047;-77
2021/07/20 09:57:09;;;;;;;10.77;7.15;;;22.30;91.10;;;;;;4974752;28;20492;-79
2021/07/20 09:59:56;;;;;;;11.50;7.22;;;22.30;90.80;;;;;;4972572;28;20057;-79
2021/07/20 10:02:34;;;;;;;12.05;7.47;;;22.40;90.30;;;;;;4975319;28;20055;-79
2021/07/20 10:05:12;;;;;;;11.18;7.68;;;22.50;90.40;;;;;;4957177;29;20138;-78
2021/07/20 10:07:43;;;;;;;10.45;6.60;;;22.70;90.30;;;;;;4955784;29;20142;-79
2021/07/20 10:10:17;;;;;;;12.05;7.72;;;22.70;89.50;;;;;;4955226;29;20051;-78
2021/07/20 10:13:01;;;;;;;15.05;8.70;;;22.70;89.00;;;;;;4960938;29;20135;-77
2021/07/20 10:15:44;;;;;;;11.43;8.10;;;22.70;87.50;;;;;;4963862;28;20058;-79
2021/07/20 10:18:20;;;;;;;11.70;7.32;;;22.70;87.70;;;;;;4963641;29;20106;-79
2021/07/20 10:20:56;;;;;;;11.35;7.50;;;22.80;87.50;;;;;;4963572;28;20113;-80
2021/07/20 10:23:32;;;;;;;13.38;8.35;;;22.80;87.20;;;;;;4955286;28;20059;-78
2021/07/20 10:26:07;;;;;;;11.93;7.70;;;22.90;87.20;;;;;;4953646;28;20134;-78
2021/07/20 10:28:43;;;;;;;13.43;8.27;;;22.90;86.80;;;;;;4954796;28;20054;-78
2021/07/20 10:31:17;;;;;;;12.95;8.73;;;22.90;85.30;;;;;;4963034;28;20050;-77
2021/07/20 10:33:49;;;;;;;13.35;9.05;;;22.90;85.30;;;;;;4974237;28;20047;-81
2021/07/20 10:36:20;;;;;;;13.90;8.50;;;22.80;85.10;;;;;;4974068;28;20138;-81
2021/07/20 10:38:53;;;;;;;14.13;8.88;;;22.80;85.30;;;;;;4974682;28;20137;-80
2021/07/20 10:41:25;;;;;;;11.95;8.10;;;22.80;85.30;;;;;;4973483;28;20065;-80
2021/07/20 10:44:01;;;;;;;14.23;8.40;;;22.80;85.80;;;;;;4982083;28;20070;-81
2021/07/20 10:46:34;;;;;;;15.45;10.15;;;22.90;85.30;;;;;;4982975;28;20077;-80
2021/07/20 10:49:16;;;;;;;13.05;8.90;;;22.90;84.80;;;;;;4981775;28;20081;-80
2021/07/20 10:51:44;;;;;;;18.20;10.55;;;23.00;85.40;;;;;;4973845;28;20393;-79
2021/07/20 10:54:23;;;;;;;14.23;9.15;;;23.00;84.80;;;;;;4978328;28;20047;-81
2021/07/20 10:56:56;;;;;;;14.88;9.13;;;23.10;84.20;;;;;;4983400;28;20150;-80
2021/07/20 10:59:43;;;;;;;16.55;9.10;;;23.10;84.00;;;;;;4983780;28;20054;-79
2021/07/20 11:02:31;;;;;;;14.13;9.85;;;23.20;84.80;;;;;;4967919;29;20070;-81
2021/07/20 11:05:01;;;;;;;11.68;8.18;;;23.20;83.20;;;;;;4966720;28;20394;-79
2021/07/20 11:07:32;;;;;;;12.57;7.95;;;23.20;84.10;;;;;;4967032;28;20079;-81
2021/07/20 11:10:07;;;;;;;13.95;8.95;;;23.30;84.80;;;;;;4974746;28;20054;-80
2021/07/20 11:12:37;;;;;;;13.40;9.32;;;23.40;84.30;;;;;;4985599;28;20086;-78
2021/07/20 11:15:06;;;;;;;13.70;8.88;;;23.40;83.30;;;;;;4984829;28;20058;-82
2021/07/20 11:17:38;;;;;;;11.88;7.90;;;23.40;83.30;;;;;;4983253;28;20365;-81
2021/07/20 11:20:11;;;;;;;16.27;9.13;;;23.40;83.50;;;;;;4973126;28;20465;-79
2021/07/20 11:22:40;;;;;;;14.82;9.93;;;23.30;82.30;;;;;;4972270;28;20057;-80
2021/07/20 11:25:10;;;;;;;15.32;9.45;;;23.20;80.90;;;;;;4973302;28;20057;-81
2021/07/20 11:27:42;;;;;;;13.45;9.25;;;23.20;81.00;;;;;;4973032;28;20097;-81
2021/07/20 11:30:12;;;;;;;14.65;9.38;;;23.30;80.80;;;;;;4972574;28;20070;-80
2021/07/20 11:32:45;;;;;;;14.10;9.70;;;23.40;80.30;;;;;;4974113;28;20043;-81
2021/07/20 11:35:16;;;;;;;14.32;9.52;;;23.40;79.90;;;;;;4973009;28;20458;-81
2021/07/20 11:37:51;;;;;;;14.65;9.60;;;23.50;80.30;;;;;;4972640;28;20492;-80
2021/07/20 11:40:24;;;;;;;14.05;9.02;;;23.60;79.50;;;;;;4973105;28;20467;-81
2021/07/20 11:42:56;;;;;;;16.27;10.85;;;23.60;79.90;;;;;;4972809;28;20055;-80
2021/07/20 11:45:28;;;;;;;16.15;10.40;;;23.70;78.20;;;;;;4972175;28;20575;-81
2021/07/20 11:48:06;;;;;;;15.73;10.70;;;23.70;78.20;;;;;;4973340;28;20141;-80
2021/07/20 11:50:41;;;;;;;13.55;9.32;;;23.70;78.50;;;;;;4972182;28;20105;-79
2021/07/20 11:53:18;;;;;;;14.98;10.07;;;23.70;77.80;;;;;;4972695;28;20109;-80
2021/07/20 11:55:54;;;;;;;14.45;9.65;;;23.70;77.80;;;;;;4972925;28;20412;-80
2021/07/20 11:59:22;;;;;;;15.23;10.13;;;23.90;76.50;;;;;;4973042;28;20049;-80
2021/07/20 12:02:47;;;;;;;16.23;9.90;;;23.90;77.30;;;;;;4953280;29;20051;-81
2021/07/20 12:06:23;;;;;;;12.45;8.95;;;24.00;77.20;;;;;;4953460;29;20051;-81
2021/07/20 12:09:03;;;;;;;16.80;10.48;;;24.00;78.30;;;;;;4900361;29;20048;-81
2021/07/20 12:11:32;;;;;;;16.45;10.93;;;24.20;77.90;;;;;;4960119;28;20076;-79
2021/07/20 12:14:02;;;;;;;17.42;12.15;;;24.30;73.80;;;;;;4956292;28;20057;-81
2021/07/20 12:16:30;;;;;;;17.73;11.35;;;24.20;71.80;;;;;;4960283;28;20044;-81
2021/07/20 12:18:59;;;;;;;13.50;9.98;;;24.20;72.20;;;;;;4971540;28;20057;-81
2021/07/20 12:21:29;;;;;;;15.43;10.43;;;24.20;74.00;;;;;;4966491;28;20078;-81
2021/07/20 12:23:57;;;;;;;15.07;10.38;;;24.40;74.10;;;;;;4952740;29;20432;-81
2021/07/20 12:26:27;;;;;;;12.93;9.15;;;24.40;73.10;;;;;;4956421;28;20062;-80
2021/07/20 12:28:57;;;;;;;11.43;8.18;;;24.50;73.80;;;;;;4971982;28;20081;-79
2021/07/20 12:31:28;;;;;;;14.80;10.10;;;24.60;74.30;;;;;;4964425;28;20046;-78
2021/07/20 12:33:57;;;;;;;13.55;9.18;;;24.70;72.70;;;;;;4952464;29;20424;-80
2021/07/20 12:36:27;;;;;;;16.55;9.43;;;24.80;73.20;;;;;;4952606;28;20051;-80
2021/07/20 12:39:09;;;;;;;12.63;8.80;;;24.90;73.30;;;;;;4952178;28;20142;-83
2021/07/20 12:41:37;;;;;;;11.00;7.97;;;25.00;72.90;;;;;;4958515;28;20138;-81
2021/07/20 12:44:05;;;;;;;13.75;9.50;;;25.10;73.90;;;;;;4964337;28;20141;-81
2021/07/20 12:46:36;;;;;;;14.38;9.40;;;25.20;71.90;;;;;;4963691;28;20063;-81
2021/07/20 12:49:04;;;;;;;12.85;9.63;;;25.20;69.50;;;;;;4952240;28;20067;-81
2021/07/20 12:51:33;;;;;;;13.93;9.98;;;25.30;69.50;;;;;;4960285;28;20043;-82
2021/07/20 12:54:00;;;;;;;14.15;9.35;;;25.50;68.30;;;;;;4971663;28;20139;-81
2021/07/20 12:56:30;;;;;;;13.13;9.65;;;25.60;68.30;;;;;;4971598;28;20130;-80